Time;durP1;ratioP1;P1;durP2;ratioP2;P2;SDS_P1;SDS_P2;PMS_P1;PMS_P2;Temp;Humidity;BMP_temperature;BMP_pressure;BME280_temperature;BME280_humidity;BME280_pressure;Samples;Min_cycle;Max_cycle;Signal;HPM_P1;HPM_P2
2023/01/30 00:01:42;;;;;;;18.87;10.03;;;;;;;0.14;100.00;100328.97;5018071;56;1139075;-66
2023/01/30 00:06:49;;;;;;;18.13;10.00;;;;;;;0.14;100.00;100301.67;5046931;57;1140869;-64
2023/01/30 00:11:55;;;;;;;17.63;8.97;;;;;;;0.12;100.00;100282.67;5057708;56;1140855;-67
2023/01/30 00:17:01;;;;;;;11.10;7.97;;;;;;;0.11;100.00;100289.23;5129749;56;1138859;-66
2023/01/30 00:22:06;;;;;;;31.70;10.50;;;;;;;0.08;100.00;100273.74;5130359;55;1138853;-69
2023/01/30 00:27:12;;;;;;;19.23;11.30;;;;;;;0.07;100.00;100279.84;5148261;55;1140911;-68
2023/01/30 00:32:18;;;;;;;18.10;10.00;;;;;;;0.06;100.00;100263.84;5101145;56;1140886;-64
2023/01/30 00:37:24;;;;;;;12.73;7.93;;;;;;;0.06;100.00;100263.84;5087806;56;1141145;-68
2023/01/30 00:47:54;;;;;;;;;;;;;;;0.01;100.00;100231.52;5128502;56;1138806;-71
2023/01/30 00:52:59;;;;;;;19.37;8.50;;;;;;;-0.01;100.00;100213.86;5144955;55;973978;-69
2023/01/30 00:58:06;;;;;;;18.45;8.98;;;;;;;-0.03;100.00;100212.62;5125490;55;1138827;-71
2023/01/30 01:03:11;;;;;;;13.53;8.57;;;;;;;-0.04;100.00;100215.28;5144978;55;1140932;-67
2023/01/30 01:08:18;;;;;;;15.83;7.97;;;;;;;-0.04;100.00;100197.08;5124849;55;1140893;-70
2023/01/30 01:13:25;;;;;;;15.57;8.80;;;;;;;-0.04;100.00;100193.18;5115277;55;1140925;-69
2023/01/30 01:18:30;;;;;;;15.70;9.90;;;;;;;-0.08;100.00;100167.75;4981942;57;1140905;-71
2023/01/30 01:23:36;;;;;;;17.07;9.40;;;;;;;-0.08;100.00;100169.50;5108311;55;1140897;-70
2023/01/30 01:28:42;;;;;;;17.00;9.50;;;;;;;-0.10;100.00;100155.27;5061133;56;1140869;-70
2023/01/30 01:33:49;;;;;;;15.33;9.07;;;;;;;-0.13;100.00;100151.48;5137384;56;1140994;-66
2023/01/30 01:38:56;;;;;;;19.43;10.73;;;;;;;-0.14;100.00;100137.25;5043531;56;1140812;-69
2023/01/30 01:44:12;;;;;;;16.67;8.30;;;;;;;-0.15;100.00;100116.91;5110431;55;1143171;-70
2023/01/30 01:49:32;;;;;;;23.90;10.73;;;;;;;-0.17;100.00;100103.16;5165412;55;1141164;-69
2023/01/30 01:54:50;;;;;;;18.17;9.50;;;;;;;-0.18;100.00;100062.94;5150335;55;1142942;-69
2023/01/30 02:00:16;;;;;;;13.97;9.47;;;;;;;-0.20;100.00;100027.91;5130929;55;1141177;-69
2023/01/30 02:05:22;;;;;;;14.00;7.47;;;;;;;-0.20;100.00;100012.32;5130592;55;1140946;-69
2023/01/30 02:10:38;;;;;;;17.33;6.77;;;;;;;-0.19;100.00;99998.42;5125273;55;1140854;-72
2023/01/30 02:15:45;;;;;;;18.00;9.57;;;;;;;-0.19;100.00;99979.38;5093456;56;1138817;-69
2023/01/30 02:21:27;;;;;;;14.00;9.37;;;;;;;-0.18;100.00;99977.17;5108259;55;1138952;-68
2023/01/30 02:26:58;;;;;;;16.77;7.50;;;;;;;-0.16;100.00;99963.67;5008954;57;1138958;-72
2023/01/30 02:32:38;;;;;;;12.93;8.47;;;;;;;-0.14;100.00;99926.73;5194960;55;1138828;-69
2023/01/30 02:38:08;;;;;;;12.37;7.33;;;;;;;-0.14;100.00;99926.73;5195538;55;1138850;-70
2023/01/30 02:43:27;;;;;;;15.07;8.13;;;;;;;-0.16;100.00;99907.34;5188210;55;1138738;-69
2023/01/30 02:48:37;;;;;;;14.28;7.72;;;;;;;-0.15;100.00;99867.87;5166255;55;1138752;-70
2023/01/30 02:53:43;;;;;;;13.20;7.90;;;;;;;-0.17;100.00;99864.06;5207992;55;1138857;-68
2023/01/30 02:59:07;;;;;;;11.93;7.27;;;;;;;-0.16;100.00;99863.16;5174174;55;1138705;-69
2023/01/30 03:04:34;;;;;;;20.80;7.10;;;;;;;-0.13;100.00;99885.09;5216602;55;1138886;-68
2023/01/30 03:10:05;;;;;;;14.87;7.72;;;;;;;-0.09;100.00;99878.85;5193702;55;1138865;-68
2023/01/30 03:15:19;;;;;;;10.93;6.87;;;;;;;-0.08;100.00;99870.59;5128544;56;1138823;-66
2023/01/30 03:20:25;;;;;;;;;;;;;;;-0.08;100.00;99877.95;5099572;55;1139003;-69
2023/01/30 03:25:32;;;;;;;14.60;7.63;;;;;;;-0.07;100.00;99838.50;5255093;55;983603;-72
2023/01/30 03:30:38;;;;;;;13.37;7.57;;;;;;;-0.08;100.00;99874.05;5217766;55;1136720;-70
2023/01/30 03:35:45;;;;;;;14.03;7.03;;;;;;;-0.09;100.00;99828.17;5037255;57;1138694;-68
2023/01/30 03:40:51;;;;;;;14.50;7.03;;;;;;;-0.07;100.00;99829.41;5206185;55;1138942;-69
2023/01/30 03:45:59;;;;;;;11.40;7.73;;;;;;;-0.06;100.00;99811.60;5039455;57;1138898;-69
2023/01/30 03:51:06;;;;;;;9.90;6.33;;;;;;;-0.07;100.00;99809.91;5038637;57;1138985;-67
2023/01/30 03:56:12;;;;;;;11.22;7.20;;;;;;;-0.10;100.00;99791.39;5209774;55;1136784;-69
2023/01/30 04:01:18;;;;;;;10.17;5.70;;;;;;;-0.17;100.00;99775.71;5229820;55;1138815;-70
2023/01/30 04:06:25;;;;;;;14.77;8.33;;;;;;;-0.22;100.00;99761.23;5209292;55;1138726;-70
2023/01/30 04:11:31;;;;;;;14.23;7.97;;;;;;;-0.28;100.00;99753.25;5179971;55;1138792;-67
2023/01/30 04:16:37;;;;;;;11.38;7.22;;;;;;;-0.31;100.00;99733.93;5173098;55;1138862;-71
2023/01/30 04:22:00;;;;;;;18.65;7.90;;;;;;;-0.36;100.00;99743.67;5165997;55;1138951;-69
2023/01/30 04:27:08;;;;;;;15.68;9.05;;;;;;;-0.44;100.00;99736.66;5111164;55;1138751;-69
2023/01/30 04:32:15;;;;;;;14.67;7.93;;;;;;;-0.46;100.00;99719.04;4960676;57;1138675;-69
2023/01/30 04:37:21;;;;;;;18.55;10.63;;;;;;;-0.56;100.00;99710.80;5041705;56;1138671;-70
2023/01/30 04:42:28;;;;;;;16.45;9.40;;;;;;;-0.55;100.00;99708.59;4865553;58;1140861;-69
2023/01/30 04:47:37;;;;;;;20.53;10.40;;;;;;;-0.59;100.00;99700.55;5070483;55;1138995;-67
2023/01/30 04:52:43;;;;;;;17.92;9.20;;;;;;;-0.58;100.00;99681.91;5071898;55;1140976;-70
2023/01/30 04:57:49;;;;;;;19.83;10.77;;;;;;;-0.60;100.00;99670.75;5098724;55;1138953;-69
2023/01/30 05:02:55;;;;;;;20.47;10.00;;;;;;;-0.61;100.00;99676.88;5087053;55;1140938;-71
2023/01/30 05:08:01;;;;;;;20.97;10.03;;;;;;;-0.62;100.00;99663.05;5067398;55;1140941;-66
2023/01/30 05:13:07;;;;;;;18.73;8.48;;;;;;;-0.61;100.00;99639.23;5123284;55;1140941;-66
2023/01/30 05:18:13;;;;;;;14.38;8.83;;;;;;;-0.63;100.00;99630.20;5155787;55;1138767;-69
2023/01/30 05:23:19;;;;;;;10.63;7.63;;;;;;;-0.62;100.00;99608.98;5059861;55;1139037;-68
2023/01/30 05:28:24;;;;;;;19.60;10.13;;;;;;;-0.62;100.00;99585.61;4924381;58;1138669;-69
2023/01/30 05:33:30;;;;;;;21.45;13.08;;;;;;;-0.61;100.00;99579.02;5032033;56;1141032;-69
2023/01/30 05:38:36;;;;;;;19.53;11.13;;;;;;;-0.59;100.00;99561.62;5015798;57;1140845;-70
2023/01/30 05:43:42;;;;;;;19.00;10.90;;;;;;;-0.59;100.00;99560.77;5087108;56;1140949;-68
2023/01/30 05:48:48;;;;;;;19.70;8.05;;;;;;;-0.60;100.00;99546.95;4921687;57;1140944;-68
2023/01/30 05:53:54;;;;;;;17.03;9.60;;;;;;;-0.58;100.00;99538.63;5083567;56;1138852;-69
2023/01/30 05:59:01;;;;;;;13.17;7.43;;;;;;;-0.56;100.00;99534.20;4918616;58;1138860;-70
2023/01/30 06:04:07;;;;;;;14.27;8.30;;;;;;;-0.54;100.00;99522.45;5091303;56;1138758;-70
2023/01/30 06:09:13;;;;;;;10.87;7.03;;;;;;;-0.55;100.00;99523.37;4990520;57;1138747;-67
2023/01/30 06:14:19;;;;;;;23.03;12.60;;;;;;;-0.52;100.00;99516.73;5088844;56;1138926;-70
2023/01/30 06:19:25;;;;;;;24.83;10.17;;;;;;;-0.51;100.00;99523.61;5083788;55;1140782;-68
2023/01/30 06:24:31;;;;;;;13.60;7.30;;;;;;;-0.49;100.00;99518.73;4901924;57;1140843;-70
2023/01/30 06:29:37;;;;;;;14.27;8.93;;;;;;;-0.48;100.00;99505.29;5116580;56;1138691;-67
2023/01/30 06:34:43;;;;;;;15.23;8.87;;;;;;;-0.45;100.00;99507.25;5043124;56;1138774;-70
2023/01/30 06:39:49;;;;;;;14.07;6.75;;;;;;;-0.42;100.00;99503.67;5091891;56;1138801;-68
2023/01/30 06:44:56;;;;;;;20.27;11.43;;;;;;;-0.41;100.00;99497.56;5103652;56;1138822;-67
2023/01/30 06:50:02;;;;;;;17.30;10.40;;;;;;;-0.37;100.00;99477.02;5086057;56;1140725;-68
2023/01/30 06:55:10;;;;;;;20.65;10.40;;;;;;;-0.37;100.00;99479.16;5094954;56;1140968;-71
2023/01/30 07:00:19;;;;;;;17.13;11.33;;;;;;;-0.37;100.00;99477.86;5091143;56;1140883;-68
2023/01/30 07:05:24;;;;;;;20.97;11.10;;;;;;;-0.34;100.00;99460.45;5073490;56;1140857;-69
2023/01/30 07:10:31;;;;;;;16.82;10.45;;;;;;;-0.37;100.00;99458.38;5120281;56;1140918;-70
2023/01/30 07:15:37;;;;;;;17.44;9.28;;;;;;;-0.36;100.00;99448.83;5100658;56;1141134;-67
2023/01/30 07:20:48;;;;;;;16.50;9.63;;;;;;;-0.35;100.00;99434.93;5067777;56;1138904;-70
2023/01/30 07:25:54;;;;;;;12.67;7.47;;;;;;;-0.38;100.00;99420.33;5108577;56;1138748;-69
2023/01/30 07:31:01;;;;;;;18.45;10.60;;;;;;;-0.37;100.00;99427.21;5123209;55;1139082;-69
2023/01/30 07:36:08;;;;;;;12.50;7.50;;;;;;;-0.36;100.00;99412.01;5138441;55;1141092;-67
2023/01/30 07:41:13;;;;;;;17.53;9.20;;;;;;;-0.32;100.00;99415.76;5129643;55;1139060;-70
2023/01/30 07:46:19;;;;;;;15.13;9.00;;;;;;;-0.28;100.00;99410.77;5126764;55;1138728;-69
2023/01/30 07:51:24;;;;;;;10.63;7.20;;;;;;;-0.24;100.00;99409.23;5150019;55;1138670;-70
2023/01/30 07:56:30;;;;;;;14.00;8.57;;;;;;;-0.20;100.00;99395.18;5122706;55;1138887;-70
2023/01/30 08:01:36;;;;;;;14.13;8.43;;;;;;;-0.13;100.00;99402.18;5135963;55;1138763;-67
2023/01/30 08:06:42;;;;;;;13.08;6.62;;;;;;;-0.06;100.00;99406.16;5161818;55;1138807;-68
2023/01/30 08:11:47;;;;;;;14.30;8.50;;;;;;;-0.01;100.00;99403.70;5125138;55;1138956;-67
2023/01/30 08:16:53;;;;;;;9.13;5.80;;;;;;;0.06;100.00;99413.30;5130545;55;1138846;-68
2023/01/30 08:22:00;;;;;;;16.13;7.47;;;;;;;0.11;100.00;99385.32;5148840;55;1134649;-68
2023/01/30 08:27:06;;;;;;;14.20;7.90;;;;;;;0.16;100.00;99375.95;5126129;55;1136681;-71
2023/01/30 08:32:12;;;;;;;13.77;8.53;;;;;;;0.21;100.00;99381.76;5136467;55;1136721;-72
2023/01/30 08:37:18;;;;;;;11.60;7.43;;;;;;;0.27;100.00;99376.24;5125422;55;1136650;-67
2023/01/30 08:42:25;;;;;;;11.50;7.50;;;;;;;0.28;100.00;99360.56;5106185;55;1136698;-69
2023/01/30 08:47:33;;;;;;;19.23;9.77;;;;;;;0.31;100.00;99364.27;5134586;55;1136682;-68
2023/01/30 08:52:39;;;;;;;15.27;8.33;;;;;;;0.35;100.00;99361.89;5126851;55;1144930;-66
2023/01/30 08:57:47;;;;;;;11.60;7.53;;;;;;;0.40;100.00;99357.75;5120159;55;1136768;-65
2023/01/30 09:02:57;;;;;;;14.03;7.40;;;;;;;0.44;100.00;99354.53;5107406;55;1136681;-67
2023/01/30 09:08:03;;;;;;;11.73;7.53;;;;;;;0.50;100.00;99347.67;5127971;55;1136732;-68
2023/01/30 09:13:10;;;;;;;12.07;6.33;;;;;;;0.54;100.00;99357.83;5149883;55;1136736;-72
2023/01/30 09:18:16;;;;;;;14.33;8.47;;;;;;;0.59;100.00;99361.03;5110799;55;1136928;-66
2023/01/30 09:23:22;;;;;;;13.50;7.77;;;;;;;0.63;100.00;99359.91;5134448;55;1136721;-67
2023/01/30 09:28:29;;;;;;;14.27;8.30;;;;;;;0.66;100.00;99361.51;5151424;55;1136595;-68
2023/01/30 09:33:34;;;;;;;19.87;9.43;;;;;;;0.69;100.00;99358.74;5090523;55;1136708;-69
2023/01/30 09:38:40;;;;;;;13.70;7.67;;;;;;;0.74;100.00;99359.34;5120454;56;1136776;-67
2023/01/30 09:44:06;;;;;;;13.18;7.95;;;;;;;0.78;100.00;99354.31;5143746;55;1136710;-69
2023/01/30 09:49:34;;;;;;;19.37;9.80;;;;;;;0.80;100.00;99342.05;5115309;55;1136763;-67
2023/01/30 09:54:44;;;;;;;13.73;8.50;;;;;;;0.86;100.00;99330.47;5124206;55;1136771;-70
2023/01/30 10:00:13;;;;;;;15.13;9.45;;;;;;;0.90;100.00;99330.22;5145271;55;1136725;-71
2023/01/30 10:05:18;;;;;;;16.23;8.93;;;;;;;0.94;100.00;99317.84;4841572;58;1136889;-68
2023/01/30 10:10:55;;;;;;;18.70;9.90;;;;;;;0.97;100.00;99308.10;4961105;57;1136817;-67
2023/01/30 10:16:20;;;;;;;12.37;6.43;;;;;;;0.99;100.00;99303.65;4868466;58;1136906;-69
2023/01/30 10:21:57;;;;;;;18.07;9.77;;;;;;;1.01;100.00;99299.20;4964051;57;1136902;-68
2023/01/30 10:27:07;;;;;;;17.87;9.17;;;;;;;1.07;100.00;99306.28;4968902;57;1136702;-70
2023/01/30 10:32:41;;;;;;;19.87;10.27;;;;;;;1.10;100.00;99287.86;4957583;57;1136758;-69
2023/01/30 10:37:54;;;;;;;15.70;9.50;;;;;;;1.14;100.00;99294.56;4685034;60;1138912;-67
2023/01/30 10:43:27;;;;;;;16.85;9.55;;;;;;;1.24;100.00;99297.00;4735446;58;1136878;-70
2023/01/30 10:49:00;;;;;;;16.30;9.07;;;;;;;1.31;100.00;99293.95;4865632;58;1136757;-71
2023/01/30 10:54:30;;;;;;;13.18;7.90;;;;;;;1.42;100.00;99303.73;4851720;58;1136750;-70
2023/01/30 10:59:48;;;;;;;11.90;7.03;;;;;;;1.50;100.00;99282.44;4810550;58;1136804;-68
2023/01/30 11:05:03;;;;;;;13.37;8.20;;;;;;;1.55;100.00;99275.16;4886912;58;1136781;-65
2023/01/30 11:10:25;;;;;;;13.47;8.13;;;;;;;1.63;100.00;99287.28;5042004;56;1136769;-70
2023/01/30 11:15:46;;;;;;;12.07;5.75;;;;;;;1.68;100.00;99278.73;5061217;56;1136809;-67
2023/01/30 11:21:08;;;;;;;8.90;5.73;;;;;;;1.76;100.00;99282.99;5090501;56;1136899;-68
2023/01/30 11:26:21;;;;;;;12.30;6.97;;;;;;;1.85;100.00;99271.98;5093308;56;1134613;-68
2023/01/30 11:31:29;;;;;;;12.50;7.20;;;;;;;1.92;100.00;99260.27;5123954;55;1136608;-66
2023/01/30 11:36:37;;;;;;;16.60;7.75;;;;;;;1.99;100.00;99254.18;5155077;55;1136757;-69
2023/01/30 11:41:56;;;;;;;12.98;6.15;;;;;;;2.05;100.00;99237.70;5122284;55;1136892;-70
2023/01/30 11:47:12;;;;;;;19.73;6.83;;;;;;;2.09;100.00;99235.73;5117192;56;1136748;-71
2023/01/30 11:52:24;;;;;;;13.33;5.43;;;;;;;2.13;100.00;99243.75;5049124;56;1136633;-67
2023/01/30 11:57:30;;;;;;;10.77;5.57;;;;;;;2.14;100.00;99238.87;5063383;56;1136777;-68
2023/01/30 12:02:38;;;;;;;12.07;6.75;;;;;;;2.23;100.00;99237.00;5097346;56;1136776;-71
2023/01/30 12:07:46;;;;;;;10.03;6.17;;;;;;;2.27;100.00;99230.66;5107007;55;1136593;-73
2023/01/30 12:12:54;;;;;;;9.55;6.15;;;;;;;2.31;100.00;99229.51;5115699;56;1136689;-70
2023/01/30 12:18:07;;;;;;;15.67;6.83;;;;;;;2.33;100.00;99222.89;5127868;56;1134489;-70
2023/01/30 12:23:39;;;;;;;11.03;5.17;;;;;;;2.36;100.00;99199.22;4982702;57;1136855;-72
2023/01/30 12:29:16;;;;;;;11.48;6.05;;;;;;;2.37;100.00;99203.50;5145968;56;1136659;-69
2023/01/30 12:34:23;;;;;;;10.90;5.37;;;;;;;2.42;100.00;99198.36;5127031;56;1136820;-68
2023/01/30 12:39:45;;;;;;;9.47;5.40;;;;;;;2.55;100.00;99194.48;5138312;55;1136662;-71
2023/01/30 12:45:27;;;;;;;9.60;5.77;;;;;;;2.63;100.00;99184.34;5212461;55;1134628;-70
2023/01/30 12:51:10;;;;;;;12.17;4.67;;;;;;;2.68;100.00;99176.22;4901210;58;1134632;-71
2023/01/30 12:56:25;;;;;;;7.40;4.70;;;;;;;2.77;100.00;99167.30;4915092;58;1137018;-69
2023/01/30 13:02:10;;;;;;;8.60;4.95;;;;;;;2.90;100.00;99171.72;4912843;58;1134845;-68
2023/01/30 13:07:44;;;;;;;3.70;2.47;;;;;;;3.26;100.00;99167.04;4921291;58;1134866;-70
2023/01/30 13:13:13;;;;;;;4.07;2.73;;;;;;;3.47;100.00;99170.78;4914862;58;1134768;-69
2023/01/30 13:18:32;;;;;;;13.27;3.37;;;;;;;3.36;100.00;99170.20;4926703;57;1134748;-68
2023/01/30 13:23:45;;;;;;;7.97;2.87;;;;;;;3.19;100.00;99173.17;4984901;56;1136859;-71
2023/01/30 13:28:57;;;;;;;5.23;3.37;;;;;;;3.03;100.00;99164.25;5133007;55;1134638;-71
2023/01/30 13:34:16;;;;;;;4.47;2.57;;;;;;;2.89;100.00;99164.35;5174391;55;1134638;-69
2023/01/30 13:39:47;;;;;;;5.03;2.40;;;;;;;2.80;100.00;99156.66;5203557;55;1134765;-70
2023/01/30 13:44:56;;;;;;;3.17;2.17;;;;;;;2.69;100.00;99168.77;5180372;55;1134553;-69
2023/01/30 13:50:12;;;;;;;2.90;2.20;;;;;;;2.55;100.00;99168.84;5185654;55;1134443;-71
2023/01/30 13:55:41;;;;;;;6.87;3.67;;;;;;;2.45;100.00;99155.55;5131892;55;1134639;-68
2023/01/30 14:00:55;;;;;;;10.85;4.20;;;;;;;2.40;100.00;99155.87;5219422;55;1134735;-70
2023/01/30 14:06:14;;;;;;;5.47;3.40;;;;;;;2.39;100.00;99164.64;5197028;55;1136857;-68
2023/01/30 14:11:31;;;;;;;6.43;3.80;;;;;;;2.42;100.00;99157.92;5116294;56;1134660;-67
2023/01/30 14:16:46;;;;;;;11.60;3.80;;;;;;;2.48;100.00;99157.50;5158296;55;1134718;-68
2023/01/30 14:21:58;;;;;;;3.10;2.10;;;;;;;2.57;100.00;99167.81;5116735;56;1136745;-67
2023/01/30 14:27:08;;;;;;;13.80;4.60;;;;;;;2.59;100.00;99171.16;5139726;55;1134604;-71
2023/01/30 14:32:22;;;;;;;4.70;2.40;;;;;;;2.63;100.00;99169.16;5119877;55;1137082;-70
2023/01/30 14:37:40;;;;;;;4.47;2.80;;;;;;;2.57;100.00;99159.98;5158224;55;1134844;-70
2023/01/30 14:43:06;;;;;;;4.53;1.30;;;;;;;2.53;100.00;99165.50;5123970;55;1135350;-71
2023/01/30 14:48:36;;;;;;;5.23;1.50;;;;;;;2.42;100.00;99187.92;5193197;55;1134765;-68
2023/01/30 14:53:55;;;;;;;2.77;1.80;;;;;;;2.10;100.00;99215.25;5116329;56;1134569;-71
2023/01/30 14:59:10;;;;;;;2.77;0.93;;;;;;;1.91;100.00;99219.95;5131970;56;1134623;-71
2023/01/30 15:04:17;;;;;;;4.10;1.30;;;;;;;1.90;100.00;99200.02;5128820;56;1134621;-71
2023/01/30 15:09:25;;;;;;;3.17;1.40;;;;;;;1.92;100.00;99193.78;5115981;56;1134577;-70
2023/01/30 15:14:53;;;;;;;2.33;1.13;;;;;;;1.98;100.00;99205.60;5131112;55;1134592;-70
2023/01/30 15:20:21;;;;;;;2.07;1.40;;;;;;;2.02;100.00;99194.86;5135581;56;1134678;-69
2023/01/30 15:26:02;;;;;;;3.70;1.62;;;;;;;2.06;100.00;99195.04;5135870;55;1134624;-67
2023/01/30 15:31:20;;;;;;;118.77;21.07;;;;;;;2.07;100.00;99190.20;5142640;55;1134549;-70
2023/01/30 15:36:32;;;;;;;80.53;12.30;;;;;;;2.06;100.00;99178.09;5114997;55;1140986;-68
2023/01/30 15:41:39;;;;;;;44.97;9.40;;;;;;;2.07;100.00;99191.97;5146815;55;1138721;-70
2023/01/30 15:47:07;;;;;;;27.02;6.22;;;;;;;2.08;100.00;99191.88;5117113;55;1136553;-69
2023/01/30 15:52:19;;;;;;;11.73;3.27;;;;;;;2.09;100.00;99193.55;5122402;55;1136549;-71
2023/01/30 15:57:29;;;;;;;11.57;2.80;;;;;;;2.10;100.00;99186.09;5136799;55;1136915;-68
2023/01/30 16:02:37;;;;;;;11.20;3.50;;;;;;;2.15;100.00;99187.08;5159170;55;1136775;-68
2023/01/30 16:07:44;;;;;;;6.20;2.40;;;;;;;2.19;100.00;99202.07;4991504;57;1142585;-72
2023/01/30 16:12:53;;;;;;;10.10;2.67;;;;;;;2.23;100.00;99208.31;5133385;55;1134766;-69
2023/01/30 16:18:06;;;;;;;9.30;2.20;;;;;;;2.29;100.00;99217.02;4960621;57;1136623;-69
2023/01/30 16:23:25;;;;;;;9.23;1.62;;;;;;;2.36;100.00;99225.30;5115386;55;1134558;-70
2023/01/30 16:28:32;;;;;;;26.20;9.40;;;;;;;2.39;100.00;99230.33;5133093;55;1134608;-78
2023/01/30 16:33:38;;;;;;;8.50;2.83;;;;;;;2.39;100.00;99234.24;5153319;55;1136999;-80
2023/01/30 16:38:47;;;;;;;4.10;2.27;;;;;;;2.36;100.00;99239.19;5139189;55;1140950;-73
2023/01/30 16:44:23;;;;;;;4.30;1.85;;;;;;;2.32;100.00;99242.08;5128521;55;1134696;-70
2023/01/30 16:49:39;;;;;;;7.07;2.70;;;;;;;2.26;100.00;99260.29;5149181;55;1134755;-67
2023/01/30 16:54:55;;;;;;;5.20;1.70;;;;;;;2.18;100.00;99269.05;5153042;55;1134846;-67
2023/01/30 17:00:33;;;;;;;5.00;2.37;;;;;;;2.03;100.00;99280.44;5132501;55;1134468;-69
2023/01/30 17:05:42;;;;;;;5.63;3.13;;;;;;;1.93;100.00;99281.95;5127262;55;1134637;-71
2023/01/30 17:10:55;;;;;;;5.22;1.98;;;;;;;1.85;100.00;99283.72;5147723;55;1134992;-67
2023/01/30 17:16:28;;;;;;;8.43;3.90;;;;;;;1.79;100.00;99297.15;5140964;55;1134617;-72
2023/01/30 17:21:49;;;;;;;7.87;2.77;;;;;;;1.75;100.00;99295.19;5170893;55;1134645;-71
2023/01/30 17:27:01;;;;;;;8.93;3.63;;;;;;;1.73;100.00;99285.31;5140632;55;1134681;-69
2023/01/30 17:32:14;;;;;;;3.90;1.97;;;;;;;1.73;100.00;99294.44;5138478;55;1134762;-69
2023/01/30 17:37:21;;;;;;;10.50;3.57;;;;;;;1.72;100.00;99291.92;5117003;55;1134505;-70
2023/01/30 17:42:27;;;;;;;8.33;2.37;;;;;;;1.71;100.00;99308.03;5135848;56;1136707;-67
2023/01/30 17:47:33;;;;;;;5.57;2.70;;;;;;;1.71;100.00;99306.72;5187679;55;1134627;-71
2023/01/30 17:52:39;;;;;;;8.07;2.40;;;;;;;1.74;100.00;99312.22;5122058;55;1134632;-72
2023/01/30 17:57:48;;;;;;;6.60;3.10;;;;;;;1.75;100.00;99325.63;5136555;56;1134525;-69
2023/01/30 18:02:54;;;;;;;7.97;3.22;;;;;;;1.74;100.00;99335.21;5116188;56;1134632;-69
2023/01/30 18:08:00;;;;;;;14.75;3.65;;;;;;;1.75;100.00;99329.07;5116378;56;1134489;-71
2023/01/30 18:13:06;;;;;;;17.17;3.30;;;;;;;1.78;100.00;99335.88;5115806;56;1136834;-66
2023/01/30 18:18:15;;;;;;;7.33;3.13;;;;;;;1.80;100.00;99341.84;5218778;55;1136637;-71
2023/01/30 18:23:21;;;;;;;10.07;3.60;;;;;;;1.86;100.00;99361.00;5203398;55;1134623;-68
2023/01/30 18:28:27;;;;;;;3.93;2.67;;;;;;;1.93;100.00;99369.30;5202979;55;1136814;-67
2023/01/30 18:33:34;;;;;;;3.27;2.05;;;;;;;1.96;100.00;99364.75;5223228;55;1134517;-71
2023/01/30 18:38:40;;;;;;;3.00;1.40;;;;;;;2.03;100.00;99369.11;5203090;55;1134436;-70
2023/01/30 18:43:49;;;;;;;9.50;1.80;;;;;;;2.06;100.00;99381.50;5155336;55;1134486;-71
2023/01/30 18:48:56;;;;;;;7.67;2.08;;;;;;;2.09;100.00;99382.63;5200704;55;1134674;-70
2023/01/30 18:54:02;;;;;;;6.50;1.87;;;;;;;2.14;100.00;99387.53;5116258;56;1134754;-70
2023/01/30 18:59:09;;;;;;;5.90;1.17;;;;;;;2.17;100.00;99393.03;5116149;56;1134737;-68
2023/01/30 19:04:14;;;;;;;5.37;2.30;;;;;;;2.21;100.00;99402.36;5091228;56;1134496;-72
2023/01/30 19:09:21;;;;;;;5.10;2.57;;;;;;;2.22;100.00;99400.96;5115508;56;1134619;-67
2023/01/30 19:14:27;;;;;;;14.43;3.40;;;;;;;2.20;100.00;99402.82;5115962;56;1134769;-70
2023/01/30 19:19:35;;;;;;;10.33;3.40;;;;;;;2.23;100.00;99403.11;5136061;56;1136917;-69
2023/01/30 19:24:40;;;;;;;8.55;1.65;;;;;;;2.26;100.00;99422.02;5115957;56;1136720;-71
2023/01/30 19:29:48;;;;;;;3.20;1.77;;;;;;;2.28;100.00;99421.94;5116618;56;1134606;-70
2023/01/30 19:34:53;;;;;;;8.97;2.03;;;;;;;2.31;100.00;99432.16;5136331;56;1134720;-70
2023/01/30 19:39:59;;;;;;;6.43;2.27;;;;;;;2.31;100.00;99429.55;5129647;55;1134545;-69
2023/01/30 19:45:06;;;;;;;5.07;2.60;;;;;;;2.32;100.00;99433.84;5157708;55;1134604;-67
2023/01/30 19:50:12;;;;;;;7.07;2.70;;;;;;;2.34;100.00;99452.84;5158259;55;1134654;-69
2023/01/30 19:55:19;;;;;;;5.00;1.83;;;;;;;2.33;100.00;99461.14;5135623;56;1134643;-67
2023/01/30 20:00:25;;;;;;;2.37;1.20;;;;;;;2.37;100.00;99465.25;5136076;55;1134874;-70
2023/01/30 20:05:30;;;;;;;9.80;1.63;;;;;;;2.39;100.00;99466.00;5145907;55;1134754;-70
2023/01/30 20:10:36;;;;;;;4.63;1.53;;;;;;;2.42;100.00;99467.59;5136628;55;1134954;-69
2023/01/30 20:15:42;;;;;;;6.00;1.63;;;;;;;2.43;100.00;99479.70;5136759;55;1134773;-69
2023/01/30 20:20:48;;;;;;;2.37;1.37;;;;;;;2.45;100.00;99489.55;5124558;55;1134596;-71
2023/01/30 20:25:54;;;;;;;7.58;1.95;;;;;;;2.46;100.00;99488.16;5141699;55;1134818;-70
2023/01/30 20:31:00;;;;;;;5.65;1.98;;;;;;;2.48;100.00;99481.08;5142840;55;1134663;-72
2023/01/30 20:36:10;;;;;;;6.50;1.60;;;;;;;2.49;100.00;99500.19;5119690;55;1134630;-70
2023/01/30 20:41:20;;;;;;;9.33;2.83;;;;;;;2.48;100.00;99510.25;5159476;55;1134542;-68
2023/01/30 20:46:33;;;;;;;9.80;1.70;;;;;;;2.52;100.00;99496.56;5157760;55;1134770;-70
2023/01/30 20:51:39;;;;;;;3.03;1.37;;;;;;;2.56;100.00;99511.95;5132929;55;1134829;-66
2023/01/30 20:56:49;;;;;;;9.58;3.35;;;;;;;2.58;100.00;99512.70;5144197;55;1134517;-70
2023/01/30 21:01:55;;;;;;;4.60;1.75;;;;;;;2.60;100.00;99523.86;5107619;55;1134607;-68
2023/01/30 21:07:02;;;;;;;9.43;2.55;;;;;;;2.63;100.00;99551.09;5124215;55;1134706;-71
2023/01/30 21:12:08;;;;;;;4.73;1.00;;;;;;;2.64;100.00;99544.09;5119986;55;1134731;-68
2023/01/30 21:17:14;;;;;;;11.45;3.20;;;;;;;2.67;100.00;99556.50;5091538;55;1134704;-68
2023/01/30 21:22:20;;;;;;;8.87;2.80;;;;;;;2.70;100.00;99560.70;5142316;55;1136671;-71
2023/01/30 21:27:28;;;;;;;10.70;2.67;;;;;;;2.72;100.00;99575.34;5079909;55;1134505;-70
2023/01/30 21:32:34;;;;;;;9.13;2.40;;;;;;;2.73;100.00;99577.03;5116789;55;1136732;-68
2023/01/30 21:43:15;;;;;;;10.98;2.95;;;;;;;2.76;100.00;99596.86;5120397;55;1134581;-69
2023/01/30 21:48:21;;;;;;;13.13;3.37;;;;;;;2.81;100.00;99605.27;5121310;55;1136700;-70
2023/01/30 21:53:28;;;;;;;13.70;2.73;;;;;;;2.81;100.00;99607.42;5140908;55;1136674;-67
2023/01/30 21:58:34;;;;;;;9.43;1.27;;;;;;;2.84;100.00;99612.92;5114864;55;1136847;-70
2023/01/30 22:03:40;;;;;;;9.50;2.30;;;;;;;2.88;100.00;99626.18;5126137;55;1134502;-70
2023/01/30 22:08:46;;;;;;;22.23;3.83;;;;;;;2.93;100.00;99645.47;5151238;55;1134861;-70
2023/01/30 22:13:52;;;;;;;14.90;3.40;;;;;;;2.93;100.00;99659.37;5111865;55;1136938;-69
2023/01/30 22:19:02;;;;;;;12.57;2.90;;;;;;;2.96;100.00;99671.41;5123160;55;1136767;-71
2023/01/30 22:24:10;;;;;;;17.32;3.60;;;;;;;2.97;100.00;99677.84;5131524;55;1136861;-70
2023/01/30 22:29:16;;;;;;;13.47;3.53;;;;;;;3.00;100.00;99695.11;5151146;55;1137030;-70
2023/01/30 22:34:23;;;;;;;14.83;2.73;;;;;;;3.00;100.00;99699.03;5131170;55;1136823;-71
2023/01/30 22:39:29;;;;;;;14.03;4.20;;;;;;;3.01;100.00;99705.94;5122608;55;1137001;-71
2023/01/30 22:44:35;;;;;;;15.80;3.33;;;;;;;3.02;100.00;99714.16;5128026;55;1137030;-71
2023/01/30 22:49:40;;;;;;;14.53;2.43;;;;;;;2.99;100.00;99709.95;5123029;55;1136976;-70
2023/01/30 22:54:46;;;;;;;23.57;3.30;;;;;;;3.02;100.00;99718.07;5106957;55;1136871;-69
2023/01/30 22:59:52;;;;;;;16.57;3.53;;;;;;;3.03;100.00;99724.52;5077066;56;1136628;-70
2023/01/30 23:04:58;;;;;;;15.53;3.83;;;;;;;3.04;100.00;99727.50;5039156;57;1136555;-70
2023/01/30 23:10:04;;;;;;;38.85;6.55;;;;;;;3.04;100.00;99734.50;5039357;57;1136639;-70
2023/01/30 23:15:10;;;;;;;16.60;3.77;;;;;;;3.04;100.00;99739.26;5039054;57;1136832;-71
2023/01/30 23:20:16;;;;;;;20.07;2.83;;;;;;;3.03;100.00;99741.95;5063097;57;1136807;-68
2023/01/30 23:25:22;;;;;;;23.67;3.43;;;;;;;3.01;100.00;99742.05;5043431;57;1136666;-69
2023/01/30 23:30:28;;;;;;;21.33;2.83;;;;;;;3.02;100.00;99742.89;5043467;57;1136753;-69
2023/01/30 23:35:35;;;;;;;10.82;3.30;;;;;;;3.01;100.00;99751.19;5063265;57;1136850;-69
2023/01/30 23:40:40;;;;;;;16.57;3.10;;;;;;;3.02;100.00;99753.33;5043272;56;1136697;-70
2023/01/30 23:45:46;;;;;;;22.93;4.43;;;;;;;3.00;100.00;99744.28;5096035;56;1136618;-69